sensor_id;sensor_type;location;lat;lon;timestamp;P1;durP1;ratioP1;P2;durP2;ratioP2
42030;SDS011;27709;52.036;5.906;2022-12-29T00:02:23;4.25;;;2.92;;
42030;SDS011;27709;52.036;5.906;2022-12-29T00:04:49;4.82;;;2.50;;
42030;SDS011;27709;52.036;5.906;2022-12-29T00:07:16;4.13;;;2.97;;
42030;SDS011;27709;52.036;5.906;2022-12-29T00:09:42;3.50;;;2.17;;
42030;SDS011;27709;52.036;5.906;2022-12-29T00:12:08;5.38;;;2.70;;
42030;SDS011;27709;52.036;5.906;2022-12-29T00:14:34;3.67;;;2.38;;
42030;SDS011;27709;52.036;5.906;2022-12-29T00:17:21;4.47;;;2.67;;
42030;SDS011;27709;52.036;5.906;2022-12-29T00:19:47;4.43;;;2.55;;
42030;SDS011;27709;52.036;5.906;2022-12-29T00:22:31;4.32;;;2.45;;
42030;SDS011;27709;52.036;5.906;2022-12-29T00:25:15;3.88;;;2.10;;
42030;SDS011;27709;52.036;5.906;2022-12-29T00:27:59;3.55;;;2.40;;
42030;SDS011;27709;52.036;5.906;2022-12-29T00:30:44;3.17;;;2.08;;
42030;SDS011;27709;52.036;5.906;2022-12-29T00:33:29;3.17;;;2.42;;
42030;SDS011;27709;52.036;5.906;2022-12-29T00:36:21;4.10;;;2.17;;
42030;SDS011;27709;52.036;5.906;2022-12-29T00:38:55;5.53;;;2.97;;
42030;SDS011;27709;52.036;5.906;2022-12-29T00:41:42;3.92;;;2.55;;
42030;SDS011;27709;52.036;5.906;2022-12-29T00:44:29;3.90;;;2.20;;
42030;SDS011;27709;52.036;5.906;2022-12-29T00:46:57;5.05;;;2.22;;
42030;SDS011;27709;52.036;5.906;2022-12-29T00:49:27;4.15;;;2.47;;
42030;SDS011;27709;52.036;5.906;2022-12-29T00:51:56;5.32;;;2.25;;
42030;SDS011;27709;52.036;5.906;2022-12-29T00:54:25;4.18;;;2.38;;
42030;SDS011;27709;52.036;5.906;2022-12-29T00:56:52;5.40;;;2.58;;
42030;SDS011;27709;52.036;5.906;2022-12-29T00:59:19;3.42;;;2.35;;
42030;SDS011;27709;52.036;5.906;2022-12-29T01:01:45;4.05;;;2.33;;
42030;SDS011;27709;52.036;5.906;2022-12-29T01:04:12;3.65;;;2.47;;
42030;SDS011;27709;52.036;5.906;2022-12-29T01:06:40;3.83;;;2.20;;
42030;SDS011;27709;52.036;5.906;2022-12-29T01:09:06;3.15;;;1.88;;
42030;SDS011;27709;52.036;5.906;2022-12-29T01:11:51;3.75;;;2.22;;
42030;SDS011;27709;52.036;5.906;2022-12-29T01:14:17;3.10;;;1.70;;
42030;SDS011;27709;52.036;5.906;2022-12-29T01:16:44;2.47;;;1.52;;
42030;SDS011;27709;52.036;5.906;2022-12-29T01:19:10;3.25;;;1.85;;
42030;SDS011;27709;52.036;5.906;2022-12-29T01:21:36;2.35;;;1.50;;
42030;SDS011;27709;52.036;5.906;2022-12-29T01:24:01;3.22;;;1.50;;
42030;SDS011;27709;52.036;5.906;2022-12-29T01:26:29;1.92;;;1.10;;
42030;SDS011;27709;52.036;5.906;2022-12-29T01:28:54;2.30;;;1.10;;
42030;SDS011;27709;52.036;5.906;2022-12-29T01:31:20;1.80;;;1.05;;
42030;SDS011;27709;52.036;5.906;2022-12-29T01:33:45;3.88;;;1.25;;
42030;SDS011;27709;52.036;5.906;2022-12-29T01:36:12;1.80;;;1.10;;
42030;SDS011;27709;52.036;5.906;2022-12-29T01:38:40;1.60;;;0.90;;
42030;SDS011;27709;52.036;5.906;2022-12-29T01:41:07;1.58;;;0.88;;
42030;SDS011;27709;52.036;5.906;2022-12-29T01:48:49;3.08;;;0.80;;
42030;SDS011;27709;52.036;5.906;2022-12-29T01:51:19;1.45;;;0.70;;
42030;SDS011;27709;52.036;5.906;2022-12-29T01:53:46;1.70;;;0.90;;
42030;SDS011;27709;52.036;5.906;2022-12-29T01:56:13;2.60;;;0.85;;
42030;SDS011;27709;52.036;5.906;2022-12-29T01:58:43;1.80;;;0.70;;
42030;SDS011;27709;52.036;5.906;2022-12-29T02:01:12;2.15;;;0.80;;
42030;SDS011;27709;52.036;5.906;2022-12-29T02:03:39;2.90;;;0.80;;
42030;SDS011;27709;52.036;5.906;2022-12-29T02:06:15;2.05;;;1.00;;
42030;SDS011;27709;52.036;5.906;2022-12-29T02:08:46;2.55;;;1.00;;
42030;SDS011;27709;52.036;5.906;2022-12-29T02:11:12;1.75;;;1.02;;
42030;SDS011;27709;52.036;5.906;2022-12-29T02:13:38;2.22;;;1.20;;
42030;SDS011;27709;52.036;5.906;2022-12-29T02:21:48;1.92;;;1.15;;
42030;SDS011;27709;52.036;5.906;2022-12-29T02:27:29;1.83;;;1.20;;
42030;SDS011;27709;52.036;5.906;2022-12-29T02:30:32;3.10;;;1.20;;
42030;SDS011;27709;52.036;5.906;2022-12-29T02:33:08;4.97;;;1.23;;
42030;SDS011;27709;52.036;5.906;2022-12-29T02:38:21;2.42;;;1.10;;
42030;SDS011;27709;52.036;5.906;2022-12-29T02:41:09;1.42;;;0.60;;
42030;SDS011;27709;52.036;5.906;2022-12-29T02:44:01;2.75;;;0.60;;
42030;SDS011;27709;52.036;5.906;2022-12-29T02:49:38;1.23;;;0.43;;
42030;SDS011;27709;52.036;5.906;2022-12-29T02:52:19;3.95;;;0.50;;
42030;SDS011;27709;52.036;5.906;2022-12-29T02:54:53;2.92;;;0.85;;
42030;SDS011;27709;52.036;5.906;2022-12-29T02:59:51;3.38;;;0.90;;
42030;SDS011;27709;52.036;5.906;2022-12-29T03:02:29;2.85;;;0.80;;
42030;SDS011;27709;52.036;5.906;2022-12-29T03:11:12;3.88;;;0.80;;
42030;SDS011;27709;52.036;5.906;2022-12-29T03:14:08;4.13;;;1.02;;
42030;SDS011;27709;52.036;5.906;2022-12-29T03:17:03;3.60;;;0.75;;
42030;SDS011;27709;52.036;5.906;2022-12-29T03:19:44;2.53;;;0.70;;
42030;SDS011;27709;52.036;5.906;2022-12-29T03:22:19;3.55;;;0.55;;
42030;SDS011;27709;52.036;5.906;2022-12-29T03:27:41;1.58;;;0.30;;
42030;SDS011;27709;52.036;5.906;2022-12-29T03:30:15;1.65;;;0.30;;
42030;SDS011;27709;52.036;5.906;2022-12-29T03:32:46;1.27;;;0.20;;
42030;SDS011;27709;52.036;5.906;2022-12-29T03:35:19;1.52;;;0.30;;
42030;SDS011;27709;52.036;5.906;2022-12-29T03:38:04;1.85;;;0.32;;
42030;SDS011;27709;52.036;5.906;2022-12-29T03:40:36;1.27;;;0.40;;
42030;SDS011;27709;52.036;5.906;2022-12-29T03:43:06;2.85;;;0.55;;
42030;SDS011;27709;52.036;5.906;2022-12-29T03:45:38;2.33;;;0.50;;
42030;SDS011;27709;52.036;5.906;2022-12-29T03:48:11;2.30;;;0.40;;
42030;SDS011;27709;52.036;5.906;2022-12-29T03:50:42;1.83;;;0.55;;
42030;SDS011;27709;52.036;5.906;2022-12-29T03:53:10;4.93;;;0.70;;
42030;SDS011;27709;52.036;5.906;2022-12-29T03:55:45;2.47;;;0.60;;
42030;SDS011;27709;52.036;5.906;2022-12-29T03:58:11;3.05;;;0.60;;
42030;SDS011;27709;52.036;5.906;2022-12-29T04:00:39;2.83;;;0.70;;
42030;SDS011;27709;52.036;5.906;2022-12-29T04:03:05;1.95;;;0.60;;
42030;SDS011;27709;52.036;5.906;2022-12-29T04:10:55;3.58;;;0.57;;
42030;SDS011;27709;52.036;5.906;2022-12-29T04:13:23;2.03;;;0.60;;
42030;SDS011;27709;52.036;5.906;2022-12-29T04:15:52;2.90;;;0.52;;
42030;SDS011;27709;52.036;5.906;2022-12-29T04:18:18;1.83;;;0.73;;
42030;SDS011;27709;52.036;5.906;2022-12-29T04:20:44;1.55;;;0.40;;
42030;SDS011;27709;52.036;5.906;2022-12-29T04:24:00;3.67;;;0.50;;
42030;SDS011;27709;52.036;5.906;2022-12-29T04:31:36;3.10;;;0.60;;
42030;SDS011;27709;52.036;5.906;2022-12-29T04:34:03;3.65;;;0.65;;
42030;SDS011;27709;52.036;5.906;2022-12-29T04:36:31;5.28;;;0.65;;
42030;SDS011;27709;52.036;5.906;2022-12-29T04:39:13;4.63;;;0.60;;
42030;SDS011;27709;52.036;5.906;2022-12-29T04:41:38;3.35;;;0.60;;
42030;SDS011;27709;52.036;5.906;2022-12-29T04:44:06;3.40;;;0.50;;
42030;SDS011;27709;52.036;5.906;2022-12-29T04:46:38;1.73;;;0.40;;
42030;SDS011;27709;52.036;5.906;2022-12-29T04:49:09;1.92;;;0.50;;
42030;SDS011;27709;52.036;5.906;2022-12-29T04:51:41;3.85;;;0.65;;
42030;SDS011;27709;52.036;5.906;2022-12-29T04:54:06;2.60;;;0.43;;
42030;SDS011;27709;52.036;5.906;2022-12-29T04:56:45;3.65;;;0.77;;
42030;SDS011;27709;52.036;5.906;2022-12-29T04:59:11;4.00;;;0.60;;
42030;SDS011;27709;52.036;5.906;2022-12-29T05:01:40;4.05;;;0.50;;
42030;SDS011;27709;52.036;5.906;2022-12-29T05:04:08;2.35;;;0.45;;
42030;SDS011;27709;52.036;5.906;2022-12-29T05:06:43;3.05;;;0.60;;
42030;SDS011;27709;52.036;5.906;2022-12-29T05:09:09;2.75;;;0.47;;
42030;SDS011;27709;52.036;5.906;2022-12-29T05:12:01;3.90;;;0.40;;
42030;SDS011;27709;52.036;5.906;2022-12-29T05:14:26;2.17;;;0.47;;
42030;SDS011;27709;52.036;5.906;2022-12-29T05:16:52;4.80;;;0.70;;
42030;SDS011;27709;52.036;5.906;2022-12-29T05:19:18;3.22;;;0.63;;
42030;SDS011;27709;52.036;5.906;2022-12-29T05:21:43;5.78;;;0.70;;
42030;SDS011;27709;52.036;5.906;2022-12-29T05:24:12;4.40;;;0.47;;
42030;SDS011;27709;52.036;5.906;2022-12-29T05:26:38;5.47;;;0.77;;
42030;SDS011;27709;52.036;5.906;2022-12-29T05:29:04;6.45;;;0.50;;
42030;SDS011;27709;52.036;5.906;2022-12-29T05:31:29;6.45;;;0.85;;
42030;SDS011;27709;52.036;5.906;2022-12-29T05:33:58;6.43;;;0.60;;
42030;SDS011;27709;52.036;5.906;2022-12-29T05:36:36;4.30;;;0.40;;
42030;SDS011;27709;52.036;5.906;2022-12-29T05:39:09;4.32;;;0.50;;
42030;SDS011;27709;52.036;5.906;2022-12-29T05:41:40;4.55;;;0.80;;
42030;SDS011;27709;52.036;5.906;2022-12-29T05:44:05;5.18;;;0.70;;
42030;SDS011;27709;52.036;5.906;2022-12-29T05:46:40;4.28;;;0.65;;
42030;SDS011;27709;52.036;5.906;2022-12-29T05:49:10;3.65;;;0.70;;
42030;SDS011;27709;52.036;5.906;2022-12-29T05:51:35;3.88;;;0.68;;
42030;SDS011;27709;52.036;5.906;2022-12-29T05:54:10;5.55;;;0.70;;
42030;SDS011;27709;52.036;5.906;2022-12-29T05:56:35;3.83;;;0.80;;
42030;SDS011;27709;52.036;5.906;2022-12-29T05:59:01;6.07;;;1.02;;
42030;SDS011;27709;52.036;5.906;2022-12-29T06:01:27;3.47;;;0.80;;
42030;SDS011;27709;52.036;5.906;2022-12-29T06:03:52;3.13;;;0.50;;
42030;SDS011;27709;52.036;5.906;2022-12-29T06:06:21;5.75;;;1.08;;
42030;SDS011;27709;52.036;5.906;2022-12-29T06:09:00;4.90;;;0.80;;
42030;SDS011;27709;52.036;5.906;2022-12-29T06:11:25;3.53;;;0.60;;
42030;SDS011;27709;52.036;5.906;2022-12-29T06:13:51;2.88;;;0.63;;
42030;SDS011;27709;52.036;5.906;2022-12-29T06:16:20;6.18;;;0.70;;
42030;SDS011;27709;52.036;5.906;2022-12-29T06:19:07;3.15;;;0.70;;
42030;SDS011;27709;52.036;5.906;2022-12-29T06:21:32;2.92;;;0.88;;
42030;SDS011;27709;52.036;5.906;2022-12-29T06:24:05;4.40;;;0.90;;
42030;SDS011;27709;52.036;5.906;2022-12-29T06:26:31;5.97;;;0.77;;
42030;SDS011;27709;52.036;5.906;2022-12-29T06:29:05;6.80;;;0.90;;
42030;SDS011;27709;52.036;5.906;2022-12-29T06:31:36;7.28;;;0.75;;
42030;SDS011;27709;52.036;5.906;2022-12-29T06:34:01;6.38;;;1.23;;
42030;SDS011;27709;52.036;5.906;2022-12-29T06:36:30;5.72;;;0.93;;
42030;SDS011;27709;52.036;5.906;2022-12-29T06:38:56;7.20;;;0.82;;
42030;SDS011;27709;52.036;5.906;2022-12-29T06:41:23;7.65;;;0.77;;
42030;SDS011;27709;52.036;5.906;2022-12-29T06:44:00;5.15;;;0.50;;
42030;SDS011;27709;52.036;5.906;2022-12-29T06:46:26;7.70;;;0.70;;
42030;SDS011;27709;52.036;5.906;2022-12-29T06:48:54;6.53;;;0.70;;
42030;SDS011;27709;52.036;5.906;2022-12-29T06:51:20;7.85;;;0.80;;
42030;SDS011;27709;52.036;5.906;2022-12-29T06:53:52;6.22;;;0.70;;
42030;SDS011;27709;52.036;5.906;2022-12-29T06:56:21;4.47;;;0.70;;
42030;SDS011;27709;52.036;5.906;2022-12-29T06:58:46;5.68;;;0.70;;
42030;SDS011;27709;52.036;5.906;2022-12-29T07:01:12;5.30;;;0.73;;
42030;SDS011;27709;52.036;5.906;2022-12-29T07:03:45;6.65;;;0.80;;
42030;SDS011;27709;52.036;5.906;2022-12-29T07:06:12;3.63;;;0.65;;
42030;SDS011;27709;52.036;5.906;2022-12-29T07:11:22;4.10;;;0.60;;
42030;SDS011;27709;52.036;5.906;2022-12-29T07:13:48;2.47;;;0.52;;
42030;SDS011;27709;52.036;5.906;2022-12-29T07:16:17;6.85;;;0.60;;
42030;SDS011;27709;52.036;5.906;2022-12-29T07:18:48;6.90;;;0.77;;
42030;SDS011;27709;52.036;5.906;2022-12-29T07:21:13;4.82;;;0.70;;
42030;SDS011;27709;52.036;5.906;2022-12-29T07:23:41;4.72;;;1.05;;
42030;SDS011;27709;52.036;5.906;2022-12-29T07:26:08;5.95;;;0.82;;
42030;SDS011;27709;52.036;5.906;2022-12-29T07:28:36;5.32;;;0.60;;
42030;SDS011;27709;52.036;5.906;2022-12-29T07:31:03;6.78;;;0.88;;
42030;SDS011;27709;52.036;5.906;2022-12-29T07:33:28;6.43;;;0.60;;
42030;SDS011;27709;52.036;5.906;2022-12-29T07:35:54;4.07;;;0.73;;
42030;SDS011;27709;52.036;5.906;2022-12-29T07:38:20;4.95;;;0.60;;
42030;SDS011;27709;52.036;5.906;2022-12-29T07:40:45;5.53;;;0.80;;
42030;SDS011;27709;52.036;5.906;2022-12-29T07:43:11;6.72;;;0.60;;
42030;SDS011;27709;52.036;5.906;2022-12-29T07:45:36;5.80;;;0.60;;
42030;SDS011;27709;52.036;5.906;2022-12-29T07:48:06;5.47;;;0.80;;
42030;SDS011;27709;52.036;5.906;2022-12-29T07:50:35;5.32;;;0.70;;
42030;SDS011;27709;52.036;5.906;2022-12-29T07:53:01;4.47;;;0.70;;
42030;SDS011;27709;52.036;5.906;2022-12-29T07:55:27;7.90;;;1.08;;
42030;SDS011;27709;52.036;5.906;2022-12-29T07:57:53;6.10;;;0.80;;
42030;SDS011;27709;52.036;5.906;2022-12-29T08:00:20;6.97;;;0.80;;
42030;SDS011;27709;52.036;5.906;2022-12-29T08:02:49;7.78;;;0.98;;
42030;SDS011;27709;52.036;5.906;2022-12-29T08:05:15;8.55;;;0.95;;
42030;SDS011;27709;52.036;5.906;2022-12-29T08:07:51;7.78;;;1.08;;
42030;SDS011;27709;52.036;5.906;2022-12-29T08:10:17;5.68;;;0.85;;
42030;SDS011;27709;52.036;5.906;2022-12-29T08:12:51;6.53;;;1.00;;
42030;SDS011;27709;52.036;5.906;2022-12-29T08:15:17;6.57;;;1.00;;
42030;SDS011;27709;52.036;5.906;2022-12-29T08:17:42;7.53;;;1.48;;
42030;SDS011;27709;52.036;5.906;2022-12-29T08:20:08;4.53;;;0.95;;
42030;SDS011;27709;52.036;5.906;2022-12-29T08:22:37;5.82;;;1.02;;
42030;SDS011;27709;52.036;5.906;2022-12-29T08:25:02;8.77;;;0.98;;
42030;SDS011;27709;52.036;5.906;2022-12-29T08:27:28;7.68;;;1.10;;
42030;SDS011;27709;52.036;5.906;2022-12-29T08:29:53;6.85;;;0.90;;
42030;SDS011;27709;52.036;5.906;2022-12-29T08:32:19;8.45;;;1.15;;
42030;SDS011;27709;52.036;5.906;2022-12-29T08:34:50;9.98;;;1.10;;
42030;SDS011;27709;52.036;5.906;2022-12-29T08:37:15;8.82;;;1.33;;
42030;SDS011;27709;52.036;5.906;2022-12-29T08:39:42;5.22;;;0.80;;
42030;SDS011;27709;52.036;5.906;2022-12-29T08:42:08;7.53;;;1.10;;
42030;SDS011;27709;52.036;5.906;2022-12-29T08:44:33;6.18;;;0.80;;
42030;SDS011;27709;52.036;5.906;2022-12-29T08:47:01;6.65;;;0.85;;
42030;SDS011;27709;52.036;5.906;2022-12-29T08:49:30;7.95;;;1.20;;
42030;SDS011;27709;52.036;5.906;2022-12-29T08:51:55;6.40;;;0.85;;
42030;SDS011;27709;52.036;5.906;2022-12-29T08:54:21;7.13;;;1.02;;
42030;SDS011;27709;52.036;5.906;2022-12-29T08:56:48;6.53;;;1.05;;
42030;SDS011;27709;52.036;5.906;2022-12-29T08:59:13;6.40;;;0.95;;
42030;SDS011;27709;52.036;5.906;2022-12-29T09:01:44;7.03;;;0.90;;
42030;SDS011;27709;52.036;5.906;2022-12-29T09:04:10;4.95;;;0.90;;
42030;SDS011;27709;52.036;5.906;2022-12-29T09:06:35;7.47;;;1.10;;
42030;SDS011;27709;52.036;5.906;2022-12-29T09:09:01;7.65;;;1.02;;
42030;SDS011;27709;52.036;5.906;2022-12-29T09:11:29;8.63;;;0.90;;
42030;SDS011;27709;52.036;5.906;2022-12-29T09:13:55;7.22;;;1.10;;
42030;SDS011;27709;52.036;5.906;2022-12-29T09:16:23;5.95;;;0.80;;
42030;SDS011;27709;52.036;5.906;2022-12-29T09:18:52;4.35;;;0.80;;
42030;SDS011;27709;52.036;5.906;2022-12-29T09:21:18;11.30;;;2.53;;
42030;SDS011;27709;52.036;5.906;2022-12-29T09:23:44;9.45;;;1.95;;
42030;SDS011;27709;52.036;5.906;2022-12-29T09:26:09;8.82;;;2.25;;
42030;SDS011;27709;52.036;5.906;2022-12-29T09:28:36;11.57;;;3.63;;
42030;SDS011;27709;52.036;5.906;2022-12-29T09:31:02;9.20;;;2.25;;
42030;SDS011;27709;52.036;5.906;2022-12-29T09:33:31;6.43;;;1.20;;
42030;SDS011;27709;52.036;5.906;2022-12-29T09:36:00;9.18;;;1.27;;
42030;SDS011;27709;52.036;5.906;2022-12-29T09:38:26;10.45;;;1.30;;
42030;SDS011;27709;52.036;5.906;2022-12-29T09:40:55;7.20;;;0.95;;
42030;SDS011;27709;52.036;5.906;2022-12-29T09:46:25;6.60;;;0.88;;
42030;SDS011;27709;52.036;5.906;2022-12-29T09:49:00;7.65;;;1.00;;
42030;SDS011;27709;52.036;5.906;2022-12-29T09:51:33;11.00;;;1.20;;
42030;SDS011;27709;52.036;5.906;2022-12-29T09:54:04;7.00;;;1.25;;
42030;SDS011;27709;52.036;5.906;2022-12-29T09:56:48;9.43;;;1.15;;
42030;SDS011;27709;52.036;5.906;2022-12-29T09:59:20;11.07;;;1.40;;
42030;SDS011;27709;52.036;5.906;2022-12-29T10:01:53;10.63;;;1.30;;
42030;SDS011;27709;52.036;5.906;2022-12-29T10:04:29;10.50;;;1.20;;
42030;SDS011;27709;52.036;5.906;2022-12-29T10:07:08;8.25;;;1.63;;
42030;SDS011;27709;52.036;5.906;2022-12-29T10:09:47;8.73;;;1.17;;
42030;SDS011;27709;52.036;5.906;2022-12-29T10:18:02;7.78;;;1.15;;
42030;SDS011;27709;52.036;5.906;2022-12-29T10:20:56;7.68;;;1.08;;
42030;SDS011;27709;52.036;5.906;2022-12-29T10:23:44;6.57;;;1.23;;
42030;SDS011;27709;52.036;5.906;2022-12-29T10:26:14;7.95;;;1.08;;
42030;SDS011;27709;52.036;5.906;2022-12-29T10:28:43;5.90;;;1.20;;
42030;SDS011;27709;52.036;5.906;2022-12-29T10:31:21;6.00;;;0.90;;
42030;SDS011;27709;52.036;5.906;2022-12-29T10:33:56;6.60;;;1.65;;
42030;SDS011;27709;52.036;5.906;2022-12-29T10:36:30;7.30;;;1.33;;
42030;SDS011;27709;52.036;5.906;2022-12-29T10:39:06;5.35;;;1.23;;
42030;SDS011;27709;52.036;5.906;2022-12-29T10:41:39;9.85;;;1.67;;
42030;SDS011;27709;52.036;5.906;2022-12-29T10:44:14;5.28;;;1.02;;
42030;SDS011;27709;52.036;5.906;2022-12-29T10:46:42;8.07;;;1.30;;
42030;SDS011;27709;52.036;5.906;2022-12-29T10:49:14;7.03;;;1.10;;
42030;SDS011;27709;52.036;5.906;2022-12-29T10:51:42;7.40;;;1.13;;
42030;SDS011;27709;52.036;5.906;2022-12-29T10:54:18;7.85;;;1.30;;
42030;SDS011;27709;52.036;5.906;2022-12-29T10:56:56;8.52;;;1.40;;
42030;SDS011;27709;52.036;5.906;2022-12-29T10:59:33;8.55;;;1.50;;
42030;SDS011;27709;52.036;5.906;2022-12-29T11:07:29;11.27;;;1.80;;
42030;SDS011;27709;52.036;5.906;2022-12-29T11:09:55;7.97;;;1.80;;
42030;SDS011;27709;52.036;5.906;2022-12-29T11:13:02;10.20;;;1.65;;
42030;SDS011;27709;52.036;5.906;2022-12-29T11:18:18;8.85;;;2.38;;
42030;SDS011;27709;52.036;5.906;2022-12-29T11:20:58;9.52;;;1.73;;
42030;SDS011;27709;52.036;5.906;2022-12-29T11:23:35;10.20;;;2.67;;
42030;SDS011;27709;52.036;5.906;2022-12-29T11:28:38;10.85;;;2.20;;
42030;SDS011;27709;52.036;5.906;2022-12-29T11:31:05;5.93;;;1.95;;
42030;SDS011;27709;52.036;5.906;2022-12-29T11:33:31;11.05;;;2.33;;
42030;SDS011;27709;52.036;5.906;2022-12-29T11:36:17;6.80;;;2.53;;
42030;SDS011;27709;52.036;5.906;2022-12-29T11:38:46;11.27;;;2.70;;
42030;SDS011;27709;52.036;5.906;2022-12-29T11:41:18;14.93;;;3.30;;
42030;SDS011;27709;52.036;5.906;2022-12-29T11:43:50;14.35;;;4.15;;
42030;SDS011;27709;52.036;5.906;2022-12-29T11:46:19;11.18;;;3.30;;
42030;SDS011;27709;52.036;5.906;2022-12-29T11:48:49;14.57;;;3.50;;
42030;SDS011;27709;52.036;5.906;2022-12-29T11:51:22;13.35;;;3.70;;
42030;SDS011;27709;52.036;5.906;2022-12-29T11:53:51;11.60;;;4.00;;
42030;SDS011;27709;52.036;5.906;2022-12-29T11:56:35;10.02;;;3.38;;
42030;SDS011;27709;52.036;5.906;2022-12-29T12:05:01;12.13;;;4.10;;
42030;SDS011;27709;52.036;5.906;2022-12-29T12:07:49;14.70;;;3.50;;
42030;SDS011;27709;52.036;5.906;2022-12-29T12:10:26;13.05;;;3.95;;
42030;SDS011;27709;52.036;5.906;2022-12-29T12:13:04;12.32;;;3.63;;
42030;SDS011;27709;52.036;5.906;2022-12-29T12:15:36;12.10;;;3.05;;
42030;SDS011;27709;52.036;5.906;2022-12-29T12:18:18;11.18;;;3.50;;
42030;SDS011;27709;52.036;5.906;2022-12-29T12:21:06;17.65;;;4.05;;
42030;SDS011;27709;52.036;5.906;2022-12-29T12:26:19;14.23;;;4.05;;
42030;SDS011;27709;52.036;5.906;2022-12-29T12:28:54;12.50;;;3.22;;
42030;SDS011;27709;52.036;5.906;2022-12-29T12:34:02;13.38;;;3.40;;
42030;SDS011;27709;52.036;5.906;2022-12-29T12:41:55;12.15;;;3.33;;
42030;SDS011;27709;52.036;5.906;2022-12-29T12:44:28;14.18;;;3.13;;
42030;SDS011;27709;52.036;5.906;2022-12-29T12:53:04;13.75;;;3.55;;
42030;SDS011;27709;52.036;5.906;2022-12-29T12:55:56;10.75;;;4.78;;
42030;SDS011;27709;52.036;5.906;2022-12-29T12:58:51;11.05;;;3.05;;
42030;SDS011;27709;52.036;5.906;2022-12-29T13:12:24;16.83;;;5.65;;
42030;SDS011;27709;52.036;5.906;2022-12-29T13:21:16;13.18;;;4.30;;
42030;SDS011;27709;52.036;5.906;2022-12-29T13:26:50;14.25;;;4.80;;
42030;SDS011;27709;52.036;5.906;2022-12-29T13:29:30;14.73;;;4.15;;
42030;SDS011;27709;52.036;5.906;2022-12-29T13:32:14;8.30;;;2.83;;
42030;SDS011;27709;52.036;5.906;2022-12-29T13:37:35;14.88;;;4.57;;
42030;SDS011;27709;52.036;5.906;2022-12-29T13:40:17;16.03;;;4.40;;
42030;SDS011;27709;52.036;5.906;2022-12-29T13:42:47;15.57;;;3.45;;
42030;SDS011;27709;52.036;5.906;2022-12-29T13:45:15;16.73;;;4.05;;
42030;SDS011;27709;52.036;5.906;2022-12-29T13:48:01;14.82;;;3.45;;
42030;SDS011;27709;52.036;5.906;2022-12-29T13:50:33;13.63;;;2.80;;
42030;SDS011;27709;52.036;5.906;2022-12-29T13:58:26;10.32;;;2.72;;
42030;SDS011;27709;52.036;5.906;2022-12-29T14:01:17;10.25;;;2.85;;
42030;SDS011;27709;52.036;5.906;2022-12-29T14:03:50;8.88;;;2.70;;
42030;SDS011;27709;52.036;5.906;2022-12-29T14:06:27;12.18;;;2.65;;
42030;SDS011;27709;52.036;5.906;2022-12-29T14:09:03;9.32;;;2.47;;
42030;SDS011;27709;52.036;5.906;2022-12-29T14:11:35;12.20;;;2.67;;
42030;SDS011;27709;52.036;5.906;2022-12-29T14:16:37;10.18;;;2.63;;
42030;SDS011;27709;52.036;5.906;2022-12-29T14:19:10;14.00;;;3.05;;
42030;SDS011;27709;52.036;5.906;2022-12-29T14:21:40;12.30;;;2.10;;
42030;SDS011;27709;52.036;5.906;2022-12-29T14:26:52;8.23;;;2.00;;
42030;SDS011;27709;52.036;5.906;2022-12-29T14:31:55;8.27;;;1.83;;
42030;SDS011;27709;52.036;5.906;2022-12-29T14:39:41;5.75;;;1.30;;
42030;SDS011;27709;52.036;5.906;2022-12-29T14:50:08;1.92;;;0.93;;
42030;SDS011;27709;52.036;5.906;2022-12-29T14:52:47;5.97;;;1.30;;
42030;SDS011;27709;52.036;5.906;2022-12-29T14:57:43;5.88;;;1.67;;
42030;SDS011;27709;52.036;5.906;2022-12-29T15:00:15;4.78;;;1.60;;
42030;SDS011;27709;52.036;5.906;2022-12-29T15:02:45;4.93;;;1.42;;
42030;SDS011;27709;52.036;5.906;2022-12-29T15:05:30;5.70;;;1.55;;
42030;SDS011;27709;52.036;5.906;2022-12-29T15:07:57;5.00;;;1.20;;
42030;SDS011;27709;52.036;5.906;2022-12-29T15:10:24;5.57;;;1.65;;
42030;SDS011;27709;52.036;5.906;2022-12-29T15:12:52;8.77;;;1.88;;
42030;SDS011;27709;52.036;5.906;2022-12-29T15:15:26;5.47;;;1.42;;
42030;SDS011;27709;52.036;5.906;2022-12-29T15:17:54;6.25;;;1.30;;
42030;SDS011;27709;52.036;5.906;2022-12-29T15:20:22;6.22;;;1.73;;
42030;SDS011;27709;52.036;5.906;2022-12-29T15:28:19;7.50;;;1.65;;
42030;SDS011;27709;52.036;5.906;2022-12-29T15:30:53;6.97;;;1.55;;
42030;SDS011;27709;52.036;5.906;2022-12-29T15:33:24;4.72;;;1.38;;
42030;SDS011;27709;52.036;5.906;2022-12-29T15:35:53;5.30;;;1.40;;
42030;SDS011;27709;52.036;5.906;2022-12-29T15:38:21;6.50;;;1.83;;
42030;SDS011;27709;52.036;5.906;2022-12-29T15:40:53;10.95;;;1.83;;
42030;SDS011;27709;52.036;5.906;2022-12-29T15:43:39;8.88;;;1.90;;
42030;SDS011;27709;52.036;5.906;2022-12-29T15:46:17;10.63;;;2.10;;
42030;SDS011;27709;52.036;5.906;2022-12-29T15:48:43;8.93;;;2.42;;
42030;SDS011;27709;52.036;5.906;2022-12-29T15:51:28;9.55;;;1.80;;
42030;SDS011;27709;52.036;5.906;2022-12-29T15:53:58;7.05;;;2.08;;
42030;SDS011;27709;52.036;5.906;2022-12-29T15:56:24;10.40;;;2.38;;
42030;SDS011;27709;52.036;5.906;2022-12-29T15:58:53;8.77;;;1.88;;
42030;SDS011;27709;52.036;5.906;2022-12-29T16:01:29;8.02;;;1.73;;
42030;SDS011;27709;52.036;5.906;2022-12-29T16:04:00;13.95;;;2.30;;
42030;SDS011;27709;52.036;5.906;2022-12-29T16:12:02;11.65;;;2.00;;
42030;SDS011;27709;52.036;5.906;2022-12-29T16:14:36;6.40;;;1.60;;
42030;SDS011;27709;52.036;5.906;2022-12-29T16:17:34;6.93;;;1.70;;
42030;SDS011;27709;52.036;5.906;2022-12-29T16:20:39;8.70;;;2.28;;
42030;SDS011;27709;52.036;5.906;2022-12-29T16:23:15;5.78;;;1.90;;
42030;SDS011;27709;52.036;5.906;2022-12-29T16:25:46;8.10;;;2.00;;
42030;SDS011;27709;52.036;5.906;2022-12-29T16:28:23;8.07;;;1.50;;
42030;SDS011;27709;52.036;5.906;2022-12-29T16:31:24;7.05;;;1.40;;
42030;SDS011;27709;52.036;5.906;2022-12-29T16:33:57;7.88;;;1.50;;
42030;SDS011;27709;52.036;5.906;2022-12-29T16:36:24;5.38;;;1.17;;
42030;SDS011;27709;52.036;5.906;2022-12-29T16:39:16;5.63;;;1.00;;
42030;SDS011;27709;52.036;5.906;2022-12-29T16:41:48;7.03;;;1.15;;
42030;SDS011;27709;52.036;5.906;2022-12-29T16:44:19;7.70;;;1.52;;
42030;SDS011;27709;52.036;5.906;2022-12-29T16:46:56;7.72;;;1.40;;
42030;SDS011;27709;52.036;5.906;2022-12-29T16:49:34;6.55;;;1.40;;
42030;SDS011;27709;52.036;5.906;2022-12-29T16:52:10;7.55;;;1.40;;
42030;SDS011;27709;52.036;5.906;2022-12-29T16:54:38;7.60;;;1.42;;
42030;SDS011;27709;52.036;5.906;2022-12-29T16:57:08;6.53;;;1.27;;
42030;SDS011;27709;52.036;5.906;2022-12-29T16:59:35;7.80;;;1.35;;
42030;SDS011;27709;52.036;5.906;2022-12-29T17:02:12;6.50;;;1.08;;
42030;SDS011;27709;52.036;5.906;2022-12-29T17:04:40;8.02;;;1.08;;
42030;SDS011;27709;52.036;5.906;2022-12-29T17:07:16;4.63;;;0.80;;
42030;SDS011;27709;52.036;5.906;2022-12-29T17:09:43;6.45;;;1.20;;
42030;SDS011;27709;52.036;5.906;2022-12-29T17:12:09;7.50;;;1.00;;
42030;SDS011;27709;52.036;5.906;2022-12-29T17:14:49;6.07;;;1.00;;
42030;SDS011;27709;52.036;5.906;2022-12-29T17:17:54;6.72;;;1.15;;
42030;SDS011;27709;52.036;5.906;2022-12-29T17:20:26;5.25;;;1.25;;
42030;SDS011;27709;52.036;5.906;2022-12-29T17:22:53;6.07;;;0.80;;
42030;SDS011;27709;52.036;5.906;2022-12-29T17:25:32;5.00;;;0.90;;
42030;SDS011;27709;52.036;5.906;2022-12-29T17:28:03;5.18;;;1.17;;
42030;SDS011;27709;52.036;5.906;2022-12-29T17:30:42;7.68;;;1.05;;
42030;SDS011;27709;52.036;5.906;2022-12-29T17:33:16;3.13;;;0.80;;
42030;SDS011;27709;52.036;5.906;2022-12-29T17:35:43;4.68;;;0.90;;
42030;SDS011;27709;52.036;5.906;2022-12-29T17:38:19;6.20;;;0.90;;
42030;SDS011;27709;52.036;5.906;2022-12-29T17:40:50;8.20;;;0.93;;
42030;SDS011;27709;52.036;5.906;2022-12-29T17:43:16;6.18;;;0.90;;
42030;SDS011;27709;52.036;5.906;2022-12-29T17:45:42;7.35;;;1.17;;